Time;durP1;ratioP1;P1;durP2;ratioP2;P2;SDS_P1;SDS_P2;PMS_P1;PMS_P2;Temp;Humidity;BMP_temperature;BMP_pressure;BME280_temperature;BME280_humidity;BME280_pressure;Samples;Min_cycle;Max_cycle;Signal;HPM_P1;HPM_P2
2022/05/11 00:00:21;;;;;;;8.60;1.90;;;;;;;14.28;69.47;101297.75;2112111;28;20483;-71
2022/05/11 00:01:45;;;;;;;6.07;1.50;;;;;;;14.22;69.56;101295.94;2110460;28;20130;-72
2022/05/11 00:03:08;;;;;;;8.43;2.15;;;;;;;14.20;69.60;101302.09;2112551;28;20043;-71
2022/05/11 00:04:31;;;;;;;9.07;2.50;;;;;;;14.17;69.75;101289.69;2111850;28;20047;-71
2022/05/11 00:05:53;;;;;;;5.80;1.70;;;;;;;14.18;69.75;101296.75;2102875;28;20055;-72
2022/05/11 00:07:15;;;;;;;6.85;2.00;;;;;;;14.20;69.64;101303.00;2103970;28;20528;-71
2022/05/11 00:08:38;;;;;;;8.05;1.88;;;;;;;14.24;69.60;101296.81;2103592;28;20500;-72
2022/05/11 00:10:01;;;;;;;5.63;1.80;;;;;;;14.26;69.40;101297.72;2102715;28;20503;-72
2022/05/11 00:11:26;;;;;;;5.88;1.73;;;;;;;14.24;69.34;101295.97;2100221;28;20040;-72
2022/05/11 00:12:48;;;;;;;6.82;2.00;;;;;;;14.17;69.54;101296.78;2104327;28;20577;-72
2022/05/11 00:14:11;;;;;;;3.17;1.23;;;;;;;14.14;69.66;101296.72;2117071;27;20039;-72
2022/05/11 00:15:36;;;;;;;8.00;2.17;;;;;;;14.13;69.86;101298.50;2105120;28;20502;-72
2022/05/11 00:16:59;;;;;;;4.68;1.92;;;;;;;14.14;69.82;101291.41;2102641;28;20044;-71
2022/05/11 00:18:22;;;;;;;5.60;1.85;;;;;;;14.15;69.82;101288.78;2101282;28;20052;-72
2022/05/11 00:19:44;;;;;;;8.00;2.10;;;;;;;14.15;69.79;101296.75;2108433;28;20438;-72
2022/05/11 00:21:08;;;;;;;7.03;1.83;;;;;;;14.11;69.98;101288.75;2103507;28;20519;-71
2022/05/11 00:22:30;;;;;;;8.32;2.00;;;;;;;14.10;70.10;101286.97;2109533;28;20108;-71
2022/05/11 00:23:54;;;;;;;9.55;2.47;;;;;;;14.16;70.18;101297.66;2103524;28;20051;-72
2022/05/11 00:25:17;;;;;;;8.00;2.10;;;;;;;14.19;70.08;101295.88;2110110;28;20116;-72
2022/05/11 00:26:39;;;;;;;7.35;2.08;;;;;;;14.20;70.05;101295.03;2103701;28;20040;-72
2022/05/11 00:28:02;;;;;;;2.28;1.30;;;;;;;14.22;69.97;101295.03;2094839;28;20052;-72
2022/05/11 00:29:25;;;;;;;5.10;2.03;;;;;;;14.24;69.98;101298.63;2092620;28;20078;-72
2022/05/11 00:30:49;;;;;;;7.03;2.13;;;;;;;14.24;69.95;101293.31;2092747;28;20121;-72
2022/05/11 00:32:12;;;;;;;5.20;1.63;;;;;;;14.23;69.84;101294.19;2101041;28;20138;-72
2022/05/11 00:33:34;;;;;;;6.10;1.75;;;;;;;14.19;69.74;101295.88;2103664;28;20553;-72
2022/05/11 00:34:57;;;;;;;3.53;1.63;;;;;;;14.10;69.97;101294.94;2094857;28;20049;-72
2022/05/11 00:36:19;;;;;;;5.13;1.83;;;;;;;14.05;70.04;101307.25;2100710;28;20162;-72
2022/05/11 00:37:42;;;;;;;3.75;1.85;;;;;;;14.05;70.10;101302.84;2103921;28;20048;-72
2022/05/11 00:39:04;;;;;;;5.45;2.40;;;;;;;14.06;70.05;101304.63;2095365;28;20458;-72
2022/05/11 00:40:26;;;;;;;7.13;2.20;;;;;;;14.11;70.02;101308.19;2102672;28;20052;-72
2022/05/11 00:41:48;;;;;;;5.10;1.65;;;;;;;14.07;70.04;101305.50;2108497;28;20147;-71
2022/05/11 00:43:11;;;;;;;4.57;1.58;;;;;;;13.98;70.18;101306.28;2108095;28;20044;-71
2022/05/11 00:44:33;;;;;;;8.35;1.67;;;;;;;13.98;70.60;101303.63;2103338;28;20044;-72
2022/05/11 00:46:07;;;;;;;4.88;2.30;;;;;;;14.00;70.29;101309.88;2097778;28;20053;-72
2022/05/11 00:47:34;;;;;;;9.30;1.95;;;;;;;14.04;70.22;101305.50;2105151;28;20042;-72
2022/05/11 00:50:39;;;;;;;6.82;2.42;;;;;;;14.05;70.02;101300.16;2097156;28;20054;-72
2022/05/11 00:52:07;;;;;;;7.13;2.25;;;;;;;14.05;70.24;101296.63;2094857;28;20396;-72
2022/05/11 00:53:30;;;;;;;6.65;2.03;;;;;;;14.03;70.21;101298.41;2102347;28;20062;-72
2022/05/11 00:54:57;;;;;;;5.10;1.95;;;;;;;14.02;70.26;101297.50;2106897;28;20482;-72
2022/05/11 00:56:20;;;;;;;8.70;2.00;;;;;;;14.01;70.15;101305.44;2103971;28;20044;-72
2022/05/11 00:57:49;;;;;;;7.70;2.28;;;;;;;14.01;70.01;101297.47;2102554;28;20499;-72
2022/05/11 00:59:15;;;;;;;9.02;2.08;;;;;;;13.97;70.14;101293.94;2104326;28;20071;-72
2022/05/11 01:00:38;;;;;;;6.00;2.35;;;;;;;13.96;70.31;101294.78;2104986;28;20043;-72
2022/05/11 01:02:06;;;;;;;7.72;1.83;;;;;;;13.93;70.31;101298.28;2109863;28;20051;-72
2022/05/11 01:03:34;;;;;;;4.55;1.75;;;;;;;13.89;70.57;101292.94;2105956;28;20059;-72
2022/05/11 01:05:02;;;;;;;6.50;1.75;;;;;;;13.90;70.56;101295.63;2102015;28;20105;-72
2022/05/11 01:06:24;;;;;;;8.23;2.80;;;;;;;13.91;70.70;101291.22;2112456;28;20040;-72
2022/05/11 01:07:47;;;;;;;7.72;2.78;;;;;;;13.93;70.49;101289.44;2110851;28;20067;-72
2022/05/11 01:09:11;;;;;;;6.38;2.22;;;;;;;13.92;70.38;101285.88;2105901;28;20062;-72
2022/05/11 01:10:33;;;;;;;7.38;2.35;;;;;;;13.89;70.30;101282.34;2117658;27;20394;-72
2022/05/11 01:11:59;;;;;;;6.20;2.20;;;;;;;13.86;70.08;101284.94;2112120;28;20155;-72
2022/05/11 01:13:22;;;;;;;10.30;2.00;;;;;;;13.81;70.45;101282.25;2102850;28;20142;-71
2022/05/11 01:14:50;;;;;;;8.25;3.22;;;;;;;13.81;70.55;101284.00;2099519;28;20100;-72
2022/05/11 01:16:11;;;;;;;5.05;2.05;;;;;;;13.80;70.66;101284.88;2109626;28;20100;-71
2022/05/11 01:17:37;;;;;;;7.35;2.08;;;;;;;13.78;70.62;101286.66;2102206;28;20365;-72
2022/05/11 01:18:59;;;;;;;8.23;2.00;;;;;;;13.72;70.87;101278.63;2108945;28;20467;-72
2022/05/11 01:20:24;;;;;;;7.30;2.50;;;;;;;13.71;71.09;101284.78;2111123;28;20576;-72
2022/05/11 01:21:53;;;;;;;8.75;1.90;;;;;;;13.72;71.12;101286.56;2095113;28;20373;-72
2022/05/11 01:23:23;;;;;;;10.30;2.42;;;;;;;13.72;71.13;101282.13;2102604;28;20059;-71
2022/05/11 01:24:50;;;;;;;9.07;2.20;;;;;;;13.72;71.08;101283.91;2111060;28;20080;-72
2022/05/11 01:26:16;;;;;;;7.32;2.00;;;;;;;13.68;71.27;101282.97;2111878;28;20048;-71
2022/05/11 01:27:39;;;;;;;8.23;2.50;;;;;;;13.69;71.36;101283.88;2110517;28;20590;-72
2022/05/11 01:29:02;;;;;;;7.55;2.00;;;;;;;13.65;71.63;101282.97;2111726;28;20043;-72
2022/05/11 01:30:24;;;;;;;18.00;2.17;;;;;;;13.63;71.72;101282.03;2111052;28;20630;-72
2022/05/11 01:31:47;;;;;;;6.00;2.25;;;;;;;13.64;71.73;101286.50;2102401;28;20139;-72
2022/05/11 01:33:14;;;;;;;7.57;2.38;;;;;;;13.69;71.74;101283.88;2100781;28;20070;-71
2022/05/11 01:34:36;;;;;;;9.90;2.45;;;;;;;13.69;71.52;101287.41;2095224;28;20109;-72
2022/05/11 01:36:07;;;;;;;7.13;2.53;;;;;;;13.69;71.51;101286.53;2100417;28;20044;-71
2022/05/11 01:37:30;;;;;;;4.43;2.30;;;;;;;13.64;71.56;101293.56;2102453;28;20056;-72
2022/05/11 01:38:53;;;;;;;9.82;2.40;;;;;;;13.61;71.65;101282.88;2100301;28;20074;-72
2022/05/11 01:40:18;;;;;;;8.10;2.00;;;;;;;13.59;71.74;101284.66;2113984;28;20051;-72
2022/05/11 01:41:43;;;;;;;7.75;2.20;;;;;;;13.57;71.75;101281.97;2105678;28;20056;-71
2022/05/11 01:43:06;;;;;;;8.18;2.50;;;;;;;13.55;71.84;101289.03;2100602;28;20044;-70
2022/05/11 01:44:27;;;;;;;7.38;1.95;;;;;;;13.54;71.87;101287.22;2111205;28;20044;-72
2022/05/11 01:45:50;;;;;;;8.25;2.38;;;;;;;13.51;72.06;101277.50;2105665;28;20446;-72
2022/05/11 01:47:13;;;;;;;10.25;2.25;;;;;;;13.52;72.20;101273.09;2116058;27;20092;-72
2022/05/11 01:48:36;;;;;;;6.15;2.25;;;;;;;13.56;72.18;101281.09;2113299;28;20056;-72
2022/05/11 01:49:57;;;;;;;7.18;2.42;;;;;;;13.57;72.28;101274.91;2103254;28;20117;-72
2022/05/11 01:51:21;;;;;;;10.10;2.00;;;;;;;13.61;72.28;101270.53;2110355;28;20082;-72
2022/05/11 01:52:42;;;;;;;9.57;2.05;;;;;;;13.61;72.11;101275.81;2098948;28;20089;-72
2022/05/11 01:54:05;;;;;;;7.25;1.85;;;;;;;13.59;72.10;101274.91;2108799;28;20051;-72
2022/05/11 01:55:30;;;;;;;6.95;1.88;;;;;;;13.61;72.13;101282.88;2094356;28;20071;-71
2022/05/11 01:56:52;;;;;;;4.95;1.70;;;;;;;13.57;72.03;101282.88;2103428;28;20130;-72
2022/05/11 01:58:16;;;;;;;8.68;1.85;;;;;;;13.59;71.83;101284.66;2111468;28;20079;-71
2022/05/11 01:59:37;;;;;;;6.70;1.65;;;;;;;13.56;71.85;101286.38;2105123;28;20096;-72
2022/05/11 02:01:00;;;;;;;5.43;1.73;;;;;;;13.56;71.89;101282.84;2102628;28;20056;-72
2022/05/11 02:02:22;;;;;;;6.05;1.83;;;;;;;13.54;71.78;101290.78;2105741;28;20422;-72
2022/05/11 02:03:45;;;;;;;9.27;2.00;;;;;;;13.54;71.66;101284.59;2094503;28;20049;-72
2022/05/11 02:08:27;;;;;;;9.32;2.10;;;;;;;13.47;71.63;101293.34;2119328;28;20624;-71
2022/05/11 02:09:49;;;;;;;6.22;2.00;;;;;;;13.45;71.69;101297.75;2114095;28;20109;-72
2022/05/11 02:11:15;;;;;;;7.90;1.80;;;;;;;13.44;71.64;101295.97;2102749;28;20084;-72
2022/05/11 02:12:36;;;;;;;9.80;2.22;;;;;;;13.38;71.88;101299.44;2100534;28;20098;-72
2022/05/11 02:13:59;;;;;;;10.40;2.80;;;;;;;13.39;71.98;101302.97;2107583;28;20108;-72
2022/05/11 02:15:20;;;;;;;6.32;2.10;;;;;;;13.36;72.10;101301.16;2101028;28;20139;-71
2022/05/11 02:16:43;;;;;;;7.65;2.00;;;;;;;13.34;72.12;101302.00;2099910;28;20458;-72
2022/05/11 02:18:06;;;;;;;6.68;2.28;;;;;;;13.33;72.29;101308.19;2102741;28;20140;-71
2022/05/11 02:19:29;;;;;;;6.45;2.00;;;;;;;13.34;72.35;101312.59;2094340;28;20486;-72
2022/05/11 02:20:51;;;;;;;8.57;2.20;;;;;;;13.36;72.33;101314.44;2100382;28;20096;-71
2022/05/11 02:22:14;;;;;;;8.73;2.20;;;;;;;13.35;72.29;101312.63;2106639;28;20043;-72
2022/05/11 02:23:38;;;;;;;9.63;2.22;;;;;;;13.35;72.23;101317.06;2114034;28;20074;-72
2022/05/11 02:25:00;;;;;;;6.38;2.10;;;;;;;13.36;72.20;101324.13;2104233;28;20505;-71
2022/05/11 02:26:25;;;;;;;8.30;2.30;;;;;;;13.33;72.18;101316.13;2104060;28;20039;-72
2022/05/11 02:27:48;;;;;;;11.32;2.25;;;;;;;13.31;72.19;101315.25;2113302;28;20056;-72
2022/05/11 02:29:11;;;;;;;8.63;2.45;;;;;;;13.30;72.15;101314.34;2106983;28;20052;-72
2022/05/11 02:30:33;;;;;;;10.27;2.40;;;;;;;13.32;72.21;101323.22;2109884;28;20426;-72
2022/05/11 02:31:55;;;;;;;7.93;2.47;;;;;;;13.30;72.29;101314.34;2113003;28;20047;-71
2022/05/11 02:33:17;;;;;;;6.18;2.33;;;;;;;13.31;72.27;101320.53;2112555;28;20066;-72
2022/05/11 02:36:19;;;;;;;5.82;2.40;;;;;;;13.23;72.49;101317.78;2106914;28;20047;-71
2022/05/11 02:37:43;;;;;;;5.95;2.15;;;;;;;13.23;72.63;101316.88;2095944;28;20041;-72
2022/05/11 02:39:05;;;;;;;9.50;3.17;;;;;;;13.18;72.59;101316.84;2104406;28;20048;-72
2022/05/11 02:40:31;;;;;;;7.43;2.08;;;;;;;13.18;72.77;101314.19;2104340;28;20057;-72
2022/05/11 02:41:55;;;;;;;8.48;2.17;;;;;;;13.20;72.76;101315.06;2113025;28;20138;-71
2022/05/11 02:43:18;;;;;;;8.85;2.33;;;;;;;13.19;72.75;101315.97;2106969;28;20089;-71
2022/05/11 02:44:39;;;;;;;9.95;2.40;;;;;;;13.19;72.80;101323.94;2113164;28;20082;-71
2022/05/11 02:46:02;;;;;;;7.78;2.15;;;;;;;13.17;72.85;101312.41;2111532;28;20458;-72
2022/05/11 02:47:23;;;;;;;5.57;1.90;;;;;;;13.18;72.93;101314.19;2104003;28;20044;-72
2022/05/11 02:48:45;;;;;;;9.80;1.98;;;;;;;13.21;72.71;101318.63;2104440;28;20044;-72
2022/05/11 02:50:08;;;;;;;10.07;2.40;;;;;;;13.23;72.82;101315.13;2104351;28;20076;-72
2022/05/11 02:51:32;;;;;;;7.68;2.55;;;;;;;13.23;72.69;101320.44;2104111;28;20075;-72
2022/05/11 02:52:55;;;;;;;10.60;2.10;;;;;;;13.22;72.67;101320.41;2104830;28;20055;-72
2022/05/11 02:54:18;;;;;;;7.85;1.83;;;;;;;13.19;72.62;101320.38;2107716;28;20060;-71
2022/05/11 02:55:43;;;;;;;3.97;1.80;;;;;;;13.20;72.81;101314.19;2112384;28;20109;-72
2022/05/11 02:57:08;;;;;;;9.00;2.00;;;;;;;13.23;72.68;101317.78;2110233;28;20081;-71
2022/05/11 02:58:33;;;;;;;4.47;1.80;;;;;;;13.21;72.75;101318.63;2112951;28;20043;-72
2022/05/11 02:59:54;;;;;;;7.65;2.00;;;;;;;13.22;72.69;101321.31;2112912;28;20043;-72
2022/05/11 03:01:18;;;;;;;5.20;1.90;;;;;;;13.22;72.75;101326.59;2104172;28;20048;-71
2022/05/11 03:02:41;;;;;;;8.27;2.30;;;;;;;13.23;72.65;101322.19;2109455;28;20082;-72
2022/05/11 03:04:04;;;;;;;5.07;1.65;;;;;;;13.21;72.77;101331.88;2112810;28;20055;-72
2022/05/11 03:05:27;;;;;;;7.43;2.40;;;;;;;13.21;72.89;101332.78;2111857;28;20460;-72
2022/05/11 03:06:48;;;;;;;4.22;2.15;;;;;;;13.18;72.93;101334.50;2111356;27;20427;-71
2022/05/11 03:08:12;;;;;;;5.25;1.63;;;;;;;13.15;73.04;101332.69;2107030;28;20102;-72
2022/05/11 03:09:34;;;;;;;7.75;2.20;;;;;;;13.14;73.14;101334.44;2104376;28;20541;-71
2022/05/11 03:10:57;;;;;;;6.78;2.20;;;;;;;13.14;73.19;101337.09;2104162;28;20044;-72
2022/05/11 03:12:22;;;;;;;8.15;2.03;;;;;;;13.15;72.98;101336.22;2109437;28;20048;-71
2022/05/11 03:13:44;;;;;;;7.85;2.20;;;;;;;13.14;72.98;101338.84;2113010;28;20085;-72
2022/05/11 03:15:07;;;;;;;7.57;1.95;;;;;;;13.14;72.97;101333.56;2103271;28;20457;-71
2022/05/11 03:16:30;;;;;;;6.93;2.30;;;;;;;13.13;72.98;101335.31;2108437;28;20418;-72
2022/05/11 03:17:53;;;;;;;5.05;2.40;;;;;;;13.14;72.98;101331.78;2112637;28;20047;-72
2022/05/11 03:19:16;;;;;;;5.80;2.33;;;;;;;13.14;72.85;101338.84;2106319;28;20455;-71
2022/05/11 03:20:38;;;;;;;9.75;2.20;;;;;;;13.11;72.85;101341.44;2104270;28;20465;-72
2022/05/11 03:22:00;;;;;;;6.97;2.13;;;;;;;13.09;73.11;101340.53;2104111;28;20081;-72
2022/05/11 03:23:22;;;;;;;10.45;2.80;;;;;;;13.07;73.25;101336.94;2108957;28;20148;-72
2022/05/11 03:24:45;;;;;;;7.75;2.17;;;;;;;13.08;73.29;101341.38;2112739;28;20085;-72
2022/05/11 03:26:08;;;;;;;10.25;2.78;;;;;;;13.09;73.44;101340.53;2111388;28;20545;-71
2022/05/11 03:27:32;;;;;;;6.35;2.53;;;;;;;13.12;73.41;101340.59;2112146;28;20138;-71
2022/05/11 03:28:56;;;;;;;7.78;2.53;;;;;;;13.09;73.51;101340.53;2112078;28;20077;-72
2022/05/11 03:30:18;;;;;;;6.72;1.92;;;;;;;13.07;73.66;101339.59;2114875;28;20534;-72
2022/05/11 03:34:36;;;;;;;6.32;2.20;;;;;;;13.13;73.66;101340.59;2111255;28;20157;-71
2022/05/11 03:35:03;;;;;;;5.38;2.38;;;;;;;13.26;73.57;101335.50;2106841;28;20051;-72
2022/05/11 03:36:25;;;;;;;;;;;;;;;13.29;73.50;101344.38;2109424;28;20066;-71
2022/05/11 03:37:48;;;;;;;9.60;2.53;;;;;;;13.30;73.49;101343.50;2113907;28;19924;-71
2022/05/11 03:39:11;;;;;;;8.05;2.13;;;;;;;13.36;73.48;101346.25;2112541;28;20051;-71
2022/05/11 03:40:37;;;;;;;9.77;2.22;;;;;;;13.39;73.50;101340.97;2108263;28;20603;-72
2022/05/11 03:41:59;;;;;;;7.22;1.83;;;;;;;13.48;73.53;101345.50;2104240;28;20052;-71
2022/05/11 03:43:23;;;;;;;5.60;2.15;;;;;;;13.54;73.54;101346.47;2112396;28;20044;-71
2022/05/11 03:44:46;;;;;;;8.35;2.10;;;;;;;13.62;73.63;101343.94;2106349;28;20041;-72
2022/05/11 03:46:09;;;;;;;5.97;2.40;;;;;;;13.66;73.69;101340.44;2120698;27;20049;-71
2022/05/11 03:47:32;;;;;;;10.43;2.70;;;;;;;13.73;74.01;101342.28;2099890;28;20036;-71
2022/05/11 03:48:54;;;;;;;5.63;2.13;;;;;;;13.82;73.94;101341.53;2118243;27;20047;-71
2022/05/11 03:50:17;;;;;;;7.97;1.80;;;;;;;13.91;73.94;101345.16;2109135;28;20059;-72
2022/05/11 03:51:40;;;;;;;4.60;1.55;;;;;;;14.01;73.85;101339.97;2117059;27;20074;-71
2022/05/11 03:53:02;;;;;;;7.80;1.58;;;;;;;14.09;73.85;101338.28;2112775;28;20059;-72
2022/05/11 03:54:25;;;;;;;5.00;2.13;;;;;;;14.19;73.85;101349.00;2104557;28;20071;-72
2022/05/11 03:55:48;;;;;;;5.35;2.33;;;;;;;14.30;73.93;101334.09;2112215;28;20043;-72
2022/05/11 03:57:11;;;;;;;6.03;2.03;;;;;;;14.39;73.91;101341.25;2110662;28;20044;-72
2022/05/11 03:58:35;;;;;;;7.22;1.92;;;;;;;14.51;74.11;101349.34;2120469;27;20375;-72
2022/05/11 03:59:58;;;;;;;6.20;2.15;;;;;;;14.60;74.07;101353.84;2106512;28;20424;-71
2022/05/11 04:01:20;;;;;;;6.75;1.95;;;;;;;14.70;74.18;101351.28;2103171;28;20074;-71
2022/05/11 04:02:44;;;;;;;4.13;1.50;;;;;;;14.84;74.15;101350.50;2108600;28;20062;-72
2022/05/11 04:04:07;;;;;;;8.48;2.03;;;;;;;14.97;73.99;101355.91;2108631;28;20044;-71
2022/05/11 04:05:29;;;;;;;4.28;1.75;;;;;;;15.10;73.81;101354.22;2106083;28;20624;-72
2022/05/11 04:06:51;;;;;;;6.95;1.73;;;;;;;15.21;73.62;101355.22;2107445;28;20168;-72
2022/05/11 04:08:13;;;;;;;2.08;1.15;;;;;;;15.30;73.41;101357.00;2105978;28;20048;-71
2022/05/11 04:09:36;;;;;;;5.90;1.63;;;;;;;15.30;72.95;101357.00;2111747;28;20043;-71
2022/05/11 04:10:58;;;;;;;3.75;1.40;;;;;;;15.25;72.72;101356.09;2120512;27;20050;-72
2022/05/11 04:12:19;;;;;;;2.95;1.25;;;;;;;15.22;72.76;101356.09;2114412;28;20123;-72
2022/05/11 04:13:44;;;;;;;6.75;1.60;;;;;;;15.21;72.64;101357.88;2114752;28;20427;-72
2022/05/11 04:15:08;;;;;;;8.23;1.50;;;;;;;15.21;72.68;101356.97;2112249;28;20059;-71
2022/05/11 04:16:29;;;;;;;6.85;1.70;;;;;;;15.33;73.02;101355.28;2110648;28;20421;-72
2022/05/11 04:17:52;;;;;;;9.30;1.73;;;;;;;15.53;72.89;101364.28;2108955;28;20583;-71
2022/05/11 04:19:14;;;;;;;5.22;1.70;;;;;;;15.71;72.56;101354.59;2103422;28;20087;-71
2022/05/11 04:20:35;;;;;;;3.58;1.20;;;;;;;15.90;72.24;101362.66;2109286;28;20035;-71
2022/05/11 04:21:58;;;;;;;6.90;1.92;;;;;;;16.08;71.71;101358.28;2111898;28;20055;-72
2022/05/11 04:23:21;;;;;;;6.38;1.42;;;;;;;16.22;70.91;101359.19;2112161;28;20063;-72
2022/05/11 04:24:43;;;;;;;3.33;1.40;;;;;;;16.37;70.71;101361.00;2112030;28;20044;-72
2022/05/11 04:26:06;;;;;;;3.90;1.48;;;;;;;16.50;70.43;101361.03;2101170;28;20052;-72
2022/05/11 04:27:29;;;;;;;8.13;1.90;;;;;;;16.66;69.72;101361.97;2101445;28;20040;-72
2022/05/11 04:28:54;;;;;;;4.03;1.95;;;;;;;16.82;69.72;101360.16;2103849;28;20047;-72
2022/05/11 04:30:20;;;;;;;3.33;1.38;;;;;;;16.96;69.42;101361.94;2103729;28;20060;-72
2022/05/11 04:31:43;;;;;;;4.65;1.30;;;;;;;17.07;69.37;101369.91;2104502;28;20048;-72
2022/05/11 04:33:06;;;;;;;3.10;1.20;;;;;;;17.22;69.20;101369.91;2110598;28;20052;-72
2022/05/11 04:34:28;;;;;;;5.57;1.50;;;;;;;17.36;69.01;101370.78;2111867;28;20066;-71
2022/05/11 04:35:51;;;;;;;4.28;1.38;;;;;;;17.45;68.71;101370.75;2111964;28;20504;-71
2022/05/11 04:37:14;;;;;;;6.57;1.77;;;;;;;17.58;68.94;101357.38;2111993;28;20149;-71
2022/05/11 04:38:37;;;;;;;5.70;1.67;;;;;;;17.80;68.91;101367.97;2103302;28;20055;-72
2022/05/11 04:39:59;;;;;;;7.30;1.65;;;;;;;18.05;68.56;101367.88;2103062;28;20085;-72
2022/05/11 04:41:22;;;;;;;5.13;1.35;;;;;;;18.28;67.72;101371.28;2110443;28;20067;-72
2022/05/11 04:42:44;;;;;;;6.10;1.25;;;;;;;18.51;67.53;101365.81;2111647;28;20043;-71
2022/05/11 04:44:09;;;;;;;7.45;1.65;;;;;;;18.77;66.72;101373.66;2114650;28;20051;-71
2022/05/11 04:45:30;;;;;;;7.32;1.60;;;;;;;18.96;65.82;101365.47;2112309;28;20100;-72
2022/05/11 04:46:53;;;;;;;6.07;2.13;;;;;;;19.15;65.18;101368.84;2102762;28;20052;-72
2022/05/11 04:48:18;;;;;;;9.75;1.92;;;;;;;19.35;64.60;101371.31;2111703;28;20134;-72
2022/05/11 04:49:42;;;;;;;8.48;1.65;;;;;;;19.52;64.23;101371.16;2112402;28;20043;-72
2022/05/11 04:51:06;;;;;;;7.07;1.70;;;;;;;19.75;64.06;101380.72;2111615;28;20526;-72
2022/05/11 04:52:27;;;;;;;6.20;2.65;;;;;;;20.02;63.81;101375.91;2112135;28;20044;-72
2022/05/11 04:53:50;;;;;;;3.25;1.35;;;;;;;20.27;63.50;101388.06;2111578;28;20040;-72
2022/05/11 04:55:11;;;;;;;3.42;1.55;;;;;;;20.51;63.04;101387.72;2110891;28;20051;-72
2022/05/11 04:56:34;;;;;;;2.38;1.27;;;;;;;20.74;62.61;101387.38;2103468;28;20129;-72
2022/05/11 04:57:56;;;;;;;4.05;1.27;;;;;;;20.99;62.06;101386.06;2110019;28;20052;-71
2022/05/11 04:59:22;;;;;;;6.22;1.35;;;;;;;21.27;61.31;101394.53;2111622;28;20096;-72
2022/05/11 05:00:44;;;;;;;5.88;1.50;;;;;;;21.49;60.31;101395.03;2111783;28;20044;-72
2022/05/11 05:02:13;;;;;;;5.40;1.10;;;;;;;21.75;59.30;101395.38;2111607;28;20055;-72
2022/05/11 05:03:35;;;;;;;2.58;1.00;;;;;;;22.01;58.12;101402.94;2114274;28;20523;-72
2022/05/11 05:04:59;;;;;;;4.97;1.23;;;;;;;22.24;57.01;101397.97;2111614;28;20120;-72
2022/05/11 05:06:22;;;;;;;4.90;1.08;;;;;;;22.49;56.08;101400.97;2111937;28;20047;-72
2022/05/11 05:07:44;;;;;;;5.63;1.80;;;;;;;22.68;55.00;101393.34;2103043;28;20446;-72
2022/05/11 05:09:08;;;;;;;5.78;1.30;;;;;;;22.87;54.35;101394.69;2109157;28;20092;-72
2022/05/11 05:10:30;;;;;;;6.28;1.60;;;;;;;23.12;53.66;101394.06;2105768;28;20039;-72
2022/05/11 05:11:53;;;;;;;8.52;1.35;;;;;;;23.33;52.85;101397.09;2108878;28;20061;-72
2022/05/11 05:13:16;;;;;;;13.05;1.55;;;;;;;23.51;51.27;101392.16;2111658;28;20055;-72
2022/05/11 05:14:42;;;;;;;5.97;1.33;;;;;;;23.71;49.59;101401.44;2105898;28;20036;-72
2022/05/11 05:16:05;;;;;;;7.40;1.02;;;;;;;23.89;48.84;101404.56;2109522;28;20047;-72
2022/05/11 05:17:28;;;;;;;5.97;1.10;;;;;;;24.08;48.53;101406.69;2114358;28;20106;-72
2022/05/11 05:18:51;;;;;;;5.07;1.00;;;;;;;24.29;47.83;101404.25;2111495;28;20092;-72
2022/05/11 05:20:15;;;;;;;6.50;1.40;;;;;;;24.47;47.32;101406.41;2114022;28;20048;-73
2022/05/11 05:21:37;;;;;;;4.47;1.00;;;;;;;24.63;46.60;101403.16;2108475;28;20040;-72
2022/05/11 05:23:00;;;;;;;7.68;1.15;;;;;;;24.84;45.42;101409.69;2111460;28;20164;-72
2022/05/11 05:24:23;;;;;;;4.88;1.17;;;;;;;25.02;44.26;101417.22;2105758;28;20093;-72
2022/05/11 05:25:45;;;;;;;2.40;1.00;;;;;;;25.17;43.26;101417.63;2111715;28;20052;-73
2022/05/11 05:27:07;;;;;;;3.53;0.88;;;;;;;25.45;42.74;101420.25;2105627;28;20051;-72
2022/05/11 05:31:52;;;;;;;3.90;1.00;;;;;;;25.66;40.40;101401.50;2113185;28;20082;-72
2022/05/11 05:33:15;;;;;;;4.70;0.98;;;;;;;25.75;40.11;101400.25;2110041;28;20057;-72
2022/05/11 05:34:37;;;;;;;3.97;0.95;;;;;;;25.88;39.86;101403.38;2111434;28;20499;-72
2022/05/11 05:36:00;;;;;;;4.82;1.02;;;;;;;25.97;39.88;101397.63;2111236;28;20040;-73
2022/05/11 05:37:23;;;;;;;5.22;0.90;;;;;;;25.98;39.07;101399.41;2111512;28;20051;-73
2022/05/11 05:38:45;;;;;;;5.78;0.98;;;;;;;26.02;38.58;101401.03;2111125;28;20100;-72
2022/05/11 05:40:08;;;;;;;4.88;0.80;;;;;;;26.13;38.33;101402.38;2111605;28;20396;-72
2022/05/11 05:41:31;;;;;;;5.32;1.15;;;;;;;26.20;38.27;101409.31;2111205;28;20040;-72
2022/05/11 05:42:54;;;;;;;6.20;1.23;;;;;;;26.34;38.41;101410.66;2110165;28;20918;-72
2022/05/11 05:44:16;;;;;;;5.00;1.20;;;;;;;26.47;38.42;101414.63;2111425;28;20047;-72
2022/05/11 05:45:41;;;;;;;6.32;0.95;;;;;;;26.56;37.69;101406.16;2111078;28;20048;-72
2022/05/11 05:47:05;;;;;;;4.47;0.88;;;;;;;26.53;37.57;101407.16;2102860;28;20138;-72
2022/05/11 05:48:28;;;;;;;7.55;1.10;;;;;;;26.62;37.22;101403.19;2117655;27;20059;-72
2022/05/11 05:49:50;;;;;;;4.10;1.25;;;;;;;26.78;37.17;101400.75;2113875;28;20063;-73
2022/05/11 05:51:15;;;;;;;4.10;1.00;;;;;;;26.77;36.84;101394.44;2113559;28;20039;-73
2022/05/11 05:52:37;;;;;;;7.07;1.20;;;;;;;26.70;36.93;101395.63;2111738;28;20040;-72
2022/05/11 05:54:00;;;;;;;4.00;0.93;;;;;;;26.71;37.06;101393.81;2111087;28;20047;-73
2022/05/11 05:55:23;;;;;;;3.17;1.40;;;;;;;26.79;37.12;101394.34;2094440;28;20081;-72
2022/05/11 05:56:45;;;;;;;5.10;1.13;;;;;;;26.89;37.30;101398.50;2099055;28;20048;-72
2022/05/11 05:58:07;;;;;;;4.10;0.88;;;;;;;26.94;36.61;101404.59;2107654;28;20039;-72
2022/05/11 05:59:29;;;;;;;3.60;1.15;;;;;;;26.89;36.24;101409.34;2108093;28;20139;-73
2022/05/11 06:00:54;;;;;;;6.05;1.30;;;;;;;26.77;36.89;101415.25;2105421;28;20109;-72
2022/05/11 06:02:17;;;;;;;4.30;0.77;;;;;;;26.75;36.82;101418.00;2105916;28;20040;-72
2022/05/11 06:03:39;;;;;;;5.35;0.98;;;;;;;26.68;36.85;101418.31;2102951;28;20082;-73
2022/05/11 06:05:02;;;;;;;6.28;1.23;;;;;;;26.62;36.57;101410.44;2103015;28;20568;-73
2022/05/11 06:06:25;;;;;;;6.30;1.00;;;;;;;26.50;36.65;101415.41;2102770;28;20500;-74
2022/05/11 06:07:47;;;;;;;2.95;1.00;;;;;;;26.62;36.70;101416.75;2103044;28;20048;-73
2022/05/11 06:09:10;;;;;;;12.02;1.38;;;;;;;26.65;36.35;101416.59;2102849;28;20153;-72
2022/05/11 06:10:34;;;;;;;6.20;1.13;;;;;;;26.69;36.51;101410.13;2105563;28;20048;-73
2022/05/11 06:11:57;;;;;;;5.10;1.17;;;;;;;26.69;35.87;101417.38;2103139;28;20071;-73
2022/05/11 06:13:20;;;;;;;17.05;1.40;;;;;;;26.62;36.27;101418.56;2103014;28;20145;-73
2022/05/11 06:14:43;;;;;;;5.22;0.93;;;;;;;26.67;36.09;101417.44;2111161;28;20048;-73
2022/05/11 06:16:14;;;;;;;4.65;0.90;;;;;;;26.75;35.99;101415.28;2113911;28;20146;-73
2022/05/11 06:17:35;;;;;;;8.00;1.15;;;;;;;26.90;36.34;101416.53;2112456;28;20036;-73
2022/05/11 06:18:58;;;;;;;4.35;0.88;;;;;;;27.03;35.81;101412.34;2110822;28;20146;-73
2022/05/11 06:20:21;;;;;;;3.95;0.80;;;;;;;27.08;35.08;101417.56;2111310;28;20052;-74
2022/05/11 06:21:44;;;;;;;4.28;0.98;;;;;;;27.13;34.86;101418.25;2105648;28;20094;-74
2022/05/11 06:23:07;;;;;;;4.43;0.95;;;;;;;27.21;34.93;101413.41;2102827;28;20044;-73
2022/05/11 06:24:30;;;;;;;7.65;1.02;;;;;;;27.20;34.63;101415.22;2102816;28;20044;-74
2022/05/11 06:25:53;;;;;;;4.63;1.10;;;;;;;27.19;34.54;101413.47;2102619;28;20052;-73
2022/05/11 06:27:18;;;;;;;5.22;1.02;;;;;;;27.20;34.22;101420.66;2102770;28;20060;-73
2022/05/11 06:28:42;;;;;;;6.57;1.23;;;;;;;27.27;34.46;101421.25;2102825;28;20047;-73
2022/05/11 06:30:05;;;;;;;4.45;0.77;;;;;;;27.46;34.31;101424.94;2103203;28;20097;-74
2022/05/11 06:31:29;;;;;;;5.07;0.80;;;;;;;27.58;33.92;101416.28;2102610;28;20075;-74
2022/05/11 06:32:52;;;;;;;5.90;0.80;;;;;;;27.53;33.99;101420.16;2102841;28;20056;-73
2022/05/11 06:34:17;;;;;;;6.30;1.00;;;;;;;27.44;33.90;101424.13;2105329;28;20047;-74
2022/05/11 06:35:40;;;;;;;3.30;0.73;;;;;;;27.48;33.51;101424.88;2102715;28;20078;-74
2022/05/11 06:37:03;;;;;;;4.40;0.88;;;;;;;27.45;33.51;101425.88;2112737;28;20085;-74
2022/05/11 06:38:26;;;;;;;3.75;0.68;;;;;;;27.33;33.45;101431.84;2111485;28;20043;-74